Time;durP1;ratioP1;P1;durP2;ratioP2;P2;SDS_P1;SDS_P2;PMS_P1;PMS_P2;Temp;Humidity;BMP_temperature;BMP_pressure;BME280_temperature;BME280_humidity;BME280_pressure;Samples;Min_cycle;Max_cycle;Signal;HPM_P1;HPM_P2
2023/10/21 00:00:58;;;;;;;11.80;7.30;;;32.70;1.00;;;;;;5058651;28;20016;-46
2023/10/21 00:03:23;;;;;;;12.25;7.78;;;32.70;1.00;;;;;;5073569;28;20521;-45
2023/10/21 00:05:50;;;;;;;16.48;7.68;;;32.70;1.00;;;;;;5073382;28;20040;-44
2023/10/21 00:08:15;;;;;;;11.27;7.95;;;32.70;1.00;;;;;;5063256;28;20024;-45
2023/10/21 00:10:41;;;;;;;17.17;8.52;;;32.80;1.00;;;;;;5069965;28;20425;-47
2023/10/21 00:13:07;;;;;;;17.95;8.82;;;32.80;1.00;;;;;;5073326;28;20021;-47
2023/10/21 00:15:34;;;;;;;16.70;9.05;;;32.80;1.00;;;;;;5073290;28;20113;-45
2023/10/21 00:17:59;;;;;;;15.25;8.60;;;32.80;1.00;;;;;;5072998;28;20038;-45
2023/10/21 00:20:25;;;;;;;13.85;8.60;;;32.80;1.00;;;;;;5064399;28;20452;-45
2023/10/21 00:22:51;;;;;;;13.65;8.02;;;32.80;1.00;;;;;;5058804;28;20024;-45
2023/10/21 00:25:17;;;;;;;13.63;7.90;;;32.70;1.00;;;;;;5073007;28;20028;-46
2023/10/21 00:27:42;;;;;;;16.17;9.00;;;32.80;1.00;;;;;;5072934;28;20103;-46
2023/10/21 00:30:08;;;;;;;18.17;8.23;;;32.80;1.00;;;;;;5059159;28;20059;-46
2023/10/21 00:32:34;;;;;;;15.65;8.57;;;32.80;1.00;;;;;;5072833;28;20029;-46
2023/10/21 00:34:59;;;;;;;13.70;8.68;;;32.80;1.00;;;;;;5072631;28;20343;-46
2023/10/21 00:37:25;;;;;;;12.73;7.93;;;32.80;1.00;;;;;;5072839;28;20025;-46
2023/10/21 00:39:50;;;;;;;14.65;8.13;;;32.80;1.00;;;;;;5058570;28;20021;-46
2023/10/21 00:42:16;;;;;;;12.50;7.85;;;32.80;1.00;;;;;;5072804;28;20032;-45
2023/10/21 00:44:42;;;;;;;18.20;9.23;;;32.80;1.00;;;;;;5054765;28;20497;-45
2023/10/21 00:47:11;;;;;;;14.60;8.43;;;32.80;1.00;;;;;;5072755;28;20017;-46
2023/10/21 00:49:37;;;;;;;15.45;8.52;;;32.80;1.00;;;;;;5071657;28;20029;-46
2023/10/21 00:52:04;;;;;;;11.85;7.53;;;32.80;1.00;;;;;;5072614;28;20046;-45
2023/10/21 00:54:29;;;;;;;13.55;7.55;;;32.80;1.00;;;;;;5072266;28;20082;-46
2023/10/21 00:56:55;;;;;;;12.95;7.28;;;32.80;1.00;;;;;;5072334;28;20028;-46
2023/10/21 00:59:22;;;;;;;13.52;6.97;;;32.80;1.00;;;;;;5072657;28;20082;-46
2023/10/21 01:01:47;;;;;;;12.40;6.70;;;32.80;1.00;;;;;;5051050;28;20028;-46
2023/10/21 01:04:14;;;;;;;11.98;6.63;;;32.80;1.00;;;;;;5072552;28;20021;-47
2023/10/21 01:06:40;;;;;;;16.55;6.90;;;32.80;1.00;;;;;;5072398;28;20039;-47
2023/10/21 01:09:06;;;;;;;12.45;6.35;;;32.80;1.00;;;;;;5072404;28;20016;-46
2023/10/21 01:11:31;;;;;;;14.40;6.28;;;32.80;1.00;;;;;;5072388;28;20367;-50
2023/10/21 01:13:57;;;;;;;16.55;6.40;;;32.80;1.00;;;;;;5072178;28;20029;-45
2023/10/21 01:16:23;;;;;;;13.10;7.00;;;32.70;1.00;;;;;;5056137;28;20040;-45
2023/10/21 01:18:49;;;;;;;9.15;5.82;;;32.70;1.00;;;;;;5070637;28;20147;-45
2023/10/21 01:21:14;;;;;;;15.07;6.68;;;32.70;1.00;;;;;;5052284;28;20044;-46
2023/10/21 01:23:40;;;;;;;13.15;5.72;;;32.70;1.00;;;;;;5052547;28;20136;-46
2023/10/21 01:26:06;;;;;;;15.10;6.47;;;32.60;1.00;;;;;;5056019;28;20466;-45
2023/10/21 01:28:33;;;;;;;16.80;6.95;;;32.60;1.00;;;;;;5070745;28;20040;-45
2023/10/21 01:31:00;;;;;;;11.32;5.60;;;32.70;1.00;;;;;;5070335;28;20098;-45
2023/10/21 01:33:26;;;;;;;13.30;6.88;;;32.70;1.00;;;;;;5070789;28;20058;-47
2023/10/21 01:35:51;;;;;;;9.95;5.97;;;32.70;1.00;;;;;;5055431;28;20040;-45
2023/10/21 01:38:18;;;;;;;11.85;6.05;;;32.70;1.00;;;;;;5070999;28;20040;-45
2023/10/21 01:40:44;;;;;;;13.05;6.28;;;32.60;1.00;;;;;;5070859;28;20107;-47
2023/10/21 01:43:10;;;;;;;8.95;6.30;;;32.60;1.00;;;;;;5070162;28;20051;-46
2023/10/21 01:45:36;;;;;;;12.10;5.53;;;32.60;1.00;;;;;;5069911;28;20032;-46
2023/10/21 01:48:02;;;;;;;12.18;5.75;;;32.70;1.00;;;;;;5069396;28;20028;-47
2023/10/21 01:50:29;;;;;;;13.77;5.95;;;32.60;1.00;;;;;;5069549;28;20032;-46
2023/10/21 01:52:55;;;;;;;11.10;5.80;;;32.60;1.00;;;;;;5068523;28;20017;-48
2023/10/21 01:55:21;;;;;;;10.48;6.03;;;32.60;1.00;;;;;;5068689;28;20046;-45
2023/10/21 01:57:46;;;;;;;12.13;5.20;;;32.60;1.00;;;;;;5070611;28;20032;-45
2023/10/21 02:00:18;;;;;;;16.88;6.28;;;32.60;1.00;;;;;;5073026;28;20056;-49
2023/10/21 02:02:51;;;;;;;11.82;6.10;;;32.60;1.00;;;;;;5061528;28;20067;-48
2023/10/21 02:05:17;;;;;;;14.70;6.20;;;32.60;1.00;;;;;;5075903;28;20025;-50
2023/10/21 02:07:43;;;;;;;9.95;4.82;;;32.60;1.00;;;;;;5068244;28;20074;-44
2023/10/21 02:10:09;;;;;;;10.65;4.97;;;32.60;1.00;;;;;;5075818;28;20029;-45
2023/10/21 02:12:40;;;;;;;6.93;4.70;;;32.60;1.00;;;;;;5076236;28;20477;-45
2023/10/21 02:15:11;;;;;;;10.02;5.57;;;32.60;1.00;;;;;;5075772;28;20039;-46
2023/10/21 02:17:38;;;;;;;10.57;5.30;;;32.60;1.00;;;;;;5074882;28;20119;-45
2023/10/21 02:20:04;;;;;;;8.88;5.10;;;32.60;1.00;;;;;;5075437;28;20017;-46
2023/10/21 02:22:30;;;;;;;9.18;4.50;;;32.60;1.00;;;;;;5075218;28;20107;-45
2023/10/21 02:24:56;;;;;;;8.52;4.28;;;32.60;1.00;;;;;;5057469;28;20032;-46
2023/10/21 02:27:21;;;;;;;11.05;5.07;;;32.60;1.00;;;;;;5075367;28;20037;-46
2023/10/21 02:29:48;;;;;;;8.18;4.32;;;32.60;1.00;;;;;;5075414;28;20106;-48
2023/10/21 02:32:13;;;;;;;13.18;4.28;;;32.60;1.00;;;;;;5075348;28;20020;-46
2023/10/21 02:34:39;;;;;;;9.25;4.25;;;32.50;1.00;;;;;;5074826;28;20028;-45
2023/10/21 02:37:05;;;;;;;8.43;4.40;;;32.50;1.00;;;;;;5074991;28;20025;-46
2023/10/21 02:39:30;;;;;;;8.68;3.38;;;32.50;1.00;;;;;;5075455;28;20056;-50
2023/10/21 02:41:56;;;;;;;5.20;2.90;;;32.50;1.00;;;;;;5075114;28;20422;-47
2023/10/21 02:44:22;;;;;;;6.65;3.28;;;32.50;1.00;;;;;;5075178;28;20111;-47
2023/10/21 02:46:48;;;;;;;9.30;3.80;;;32.50;1.00;;;;;;5075248;28;20043;-46
2023/10/21 02:49:14;;;;;;;8.75;3.80;;;32.50;1.00;;;;;;5056940;28;20112;-45
2023/10/21 02:51:40;;;;;;;8.43;3.95;;;32.50;1.00;;;;;;5066659;28;20123;-46
2023/10/21 02:54:07;;;;;;;8.73;3.38;;;32.50;1.00;;;;;;5074873;28;20032;-47
2023/10/21 02:56:33;;;;;;;6.20;3.22;;;32.50;1.00;;;;;;5074970;28;20041;-48
2023/10/21 02:58:58;;;;;;;6.90;3.63;;;32.50;1.00;;;;;;5070944;28;20050;-45
2023/10/21 03:01:25;;;;;;;7.32;3.72;;;32.50;1.00;;;;;;5075018;28;20028;-46
2023/10/21 03:03:51;;;;;;;9.80;3.83;;;32.50;1.00;;;;;;5074856;28;20032;-48
2023/10/21 03:06:21;;;;;;;6.25;3.15;;;32.50;1.00;;;;;;5067496;28;20098;-46
2023/10/21 03:08:47;;;;;;;7.50;3.35;;;32.50;1.00;;;;;;5068447;28;20421;-47
2023/10/21 03:11:14;;;;;;;8.15;3.33;;;32.40;1.00;;;;;;5073589;28;20016;-47
2023/10/21 03:13:39;;;;;;;11.57;3.17;;;32.50;1.00;;;;;;5060230;28;20025;-46
2023/10/21 03:16:06;;;;;;;7.82;3.20;;;32.50;1.00;;;;;;5074603;28;20028;-45
2023/10/21 03:18:34;;;;;;;8.15;3.58;;;32.40;1.00;;;;;;5074115;28;20468;-49
2023/10/21 03:21:00;;;;;;;6.47;3.08;;;32.40;1.00;;;;;;5074277;28;20029;-46
2023/10/21 03:23:26;;;;;;;8.45;3.30;;;32.50;1.00;;;;;;5060684;28;20019;-46
2023/10/21 03:25:56;;;;;;;5.50;2.85;;;32.40;1.00;;;;;;5074251;28;20048;-48
2023/10/21 03:28:22;;;;;;;7.95;3.05;;;32.50;1.00;;;;;;5059510;28;20096;-44
2023/10/21 03:30:49;;;;;;;4.57;2.65;;;32.40;1.00;;;;;;5068538;28;20302;-46
2023/10/21 03:33:15;;;;;;;9.18;3.30;;;32.40;1.00;;;;;;5050810;28;20063;-45
2023/10/21 03:35:50;;;;;;;6.82;3.25;;;32.40;1.00;;;;;;5067222;28;20031;-44
2023/10/21 03:38:16;;;;;;;7.63;3.33;;;32.40;1.00;;;;;;5055339;28;20028;-45
2023/10/21 03:40:41;;;;;;;6.78;3.10;;;32.40;1.00;;;;;;5063582;28;20123;-47
2023/10/21 03:43:07;;;;;;;6.72;2.92;;;32.50;1.00;;;;;;5050162;28;20078;-44
2023/10/21 03:46:00;;;;;;;4.47;2.75;;;32.50;1.00;;;;;;5066792;28;20103;-44
2023/10/21 03:48:26;;;;;;;5.63;2.47;;;32.50;1.00;;;;;;5071319;28;20487;-46
2023/10/21 03:50:52;;;;;;;5.57;3.20;;;32.50;1.00;;;;;;5073712;28;20096;-45
2023/10/21 03:53:18;;;;;;;6.88;3.00;;;32.50;1.00;;;;;;5073537;28;20405;-47
2023/10/21 03:55:44;;;;;;;7.57;3.28;;;32.50;1.00;;;;;;5073570;28;20043;-45
2023/10/21 03:58:10;;;;;;;4.80;2.65;;;32.40;1.00;;;;;;5073613;28;20350;-45
2023/10/21 04:00:39;;;;;;;5.80;2.92;;;32.40;1.00;;;;;;5073717;28;20020;-49
2023/10/21 04:03:05;;;;;;;6.50;2.88;;;32.40;1.00;;;;;;5069265;28;20124;-48
2023/10/21 04:05:31;;;;;;;7.05;3.40;;;32.40;1.00;;;;;;5073506;28;20103;-48
2023/10/21 04:07:58;;;;;;;6.07;2.85;;;32.50;1.00;;;;;;5073369;28;20025;-47
2023/10/21 04:10:24;;;;;;;8.63;2.83;;;32.40;1.00;;;;;;5055347;28;20099;-47
2023/10/21 04:12:49;;;;;;;8.32;2.63;;;32.40;1.00;;;;;;5055311;28;20488;-46
2023/10/21 04:15:15;;;;;;;5.97;2.60;;;32.40;1.00;;;;;;5073073;28;20072;-47
2023/10/21 04:17:41;;;;;;;7.45;3.25;;;32.40;1.00;;;;;;5073001;28;20052;-46
2023/10/21 04:20:07;;;;;;;7.38;2.40;;;32.40;1.00;;;;;;5073054;28;20036;-47
2023/10/21 04:22:32;;;;;;;7.03;3.42;;;32.40;1.00;;;;;;5073224;28;20086;-49
2023/10/21 04:24:59;;;;;;;6.75;3.33;;;32.40;1.00;;;;;;5072903;28;20025;-44
2023/10/21 04:27:26;;;;;;;5.93;3.00;;;32.40;1.00;;;;;;5073015;28;20069;-46
2023/10/21 04:29:51;;;;;;;8.32;2.92;;;32.40;1.00;;;;;;5072926;28;20027;-48
2023/10/21 04:32:17;;;;;;;5.35;3.13;;;32.40;1.00;;;;;;5072847;28;20024;-44
2023/10/21 04:34:42;;;;;;;10.93;3.10;;;32.40;1.00;;;;;;5071802;28;20037;-46
2023/10/21 04:37:27;;;;;;;6.78;2.78;;;32.40;1.00;;;;;;5069188;28;20039;-44
2023/10/21 04:39:53;;;;;;;7.07;3.63;;;32.30;1.00;;;;;;5072732;28;20024;-47
2023/10/21 04:42:19;;;;;;;7.03;3.00;;;32.30;1.00;;;;;;5072571;28;20021;-50
2023/10/21 04:44:44;;;;;;;4.68;2.55;;;32.30;1.00;;;;;;5073199;28;20031;-51
2023/10/21 04:47:12;;;;;;;8.75;2.67;;;32.30;1.00;;;;;;5072519;28;20070;-48
2023/10/21 04:49:37;;;;;;;5.72;2.83;;;32.30;1.00;;;;;;5072768;28;20110;-47
2023/10/21 04:52:04;;;;;;;9.20;3.17;;;32.30;1.00;;;;;;5054572;28;20108;-47
2023/10/21 04:54:29;;;;;;;7.93;2.83;;;32.30;1.00;;;;;;5072147;28;20047;-48
2023/10/21 04:56:55;;;;;;;3.95;3.00;;;32.40;1.00;;;;;;5072258;28;20481;-46
2023/10/21 04:59:24;;;;;;;6.95;3.42;;;32.30;1.00;;;;;;5072425;28;20052;-48
2023/10/21 05:01:49;;;;;;;6.07;3.42;;;32.30;1.00;;;;;;5054427;28;20024;-47
2023/10/21 05:04:15;;;;;;;9.40;3.58;;;32.30;1.00;;;;;;5072185;28;20015;-47
2023/10/21 05:06:41;;;;;;;5.47;3.05;;;32.30;1.00;;;;;;5072316;28;20067;-45
2023/10/21 05:09:06;;;;;;;7.22;4.30;;;32.30;1.00;;;;;;5072345;28;20024;-46
2023/10/21 05:11:32;;;;;;;4.93;3.40;;;32.30;1.00;;;;;;5072206;28;20044;-48
2023/10/21 05:13:58;;;;;;;5.18;3.25;;;32.40;1.00;;;;;;5053989;28;20540;-48
2023/10/21 05:16:23;;;;;;;6.55;3.25;;;32.40;1.00;;;;;;5072112;28;20063;-50
2023/10/21 05:18:49;;;;;;;6.78;3.03;;;32.40;1.00;;;;;;5071796;28;20078;-46
2023/10/21 05:21:14;;;;;;;7.75;3.65;;;32.40;1.00;;;;;;5072058;28;20412;-47
2023/10/21 05:23:40;;;;;;;9.52;3.28;;;32.40;1.00;;;;;;5061670;28;20025;-48
2023/10/21 05:26:06;;;;;;;8.93;3.33;;;32.30;1.00;;;;;;5068778;28;20332;-47
2023/10/21 05:28:31;;;;;;;4.78;3.58;;;32.30;1.00;;;;;;5072063;28;20126;-46
2023/10/21 05:30:57;;;;;;;7.55;3.50;;;32.30;1.00;;;;;;5072001;28;20024;-46
2023/10/21 05:33:23;;;;;;;8.27;3.40;;;32.40;1.00;;;;;;5063975;28;20102;-45
2023/10/21 05:35:49;;;;;;;10.32;3.60;;;32.40;1.00;;;;;;5065312;28;20037;-44
2023/10/21 05:38:20;;;;;;;8.00;3.40;;;32.40;1.00;;;;;;5072165;28;20021;-49
2023/10/21 05:40:46;;;;;;;5.72;2.90;;;32.40;1.00;;;;;;5057672;28;20016;-46
2023/10/21 05:43:12;;;;;;;8.15;3.35;;;32.40;1.00;;;;;;5053825;28;20051;-44
2023/10/21 05:45:37;;;;;;;7.00;3.40;;;32.40;1.00;;;;;;5071974;28;20505;-46
2023/10/21 05:48:03;;;;;;;7.60;3.63;;;32.40;1.00;;;;;;5071487;28;20025;-45
2023/10/21 05:50:30;;;;;;;6.28;3.17;;;32.50;1.00;;;;;;5057948;28;20028;-45
2023/10/21 05:52:56;;;;;;;6.35;3.67;;;32.40;1.00;;;;;;5071703;28;20059;-45
2023/10/21 05:55:21;;;;;;;7.25;3.22;;;32.50;1.00;;;;;;5071783;28;20068;-46
2023/10/21 05:57:47;;;;;;;7.40;3.67;;;32.50;1.00;;;;;;5071617;28;20036;-45
2023/10/21 06:00:13;;;;;;;5.43;3.17;;;32.40;1.00;;;;;;5071515;28;20044;-45
2023/10/21 06:02:40;;;;;;;9.27;3.05;;;32.40;1.00;;;;;;5071704;28;20035;-45
2023/10/21 06:05:05;;;;;;;11.13;3.40;;;32.40;1.00;;;;;;5071524;28;20043;-45
2023/10/21 06:07:31;;;;;;;6.72;3.28;;;32.40;1.00;;;;;;5056806;28;20444;-44
2023/10/21 06:09:57;;;;;;;6.50;2.75;;;32.40;1.00;;;;;;5071569;28;20033;-46
2023/10/21 06:12:23;;;;;;;8.65;3.47;;;32.40;1.00;;;;;;5071481;28;20070;-48
2023/10/21 06:14:50;;;;;;;7.18;3.45;;;32.40;1.00;;;;;;5071923;28;20347;-47
2023/10/21 06:17:16;;;;;;;7.93;3.35;;;32.40;1.00;;;;;;5071449;28;20039;-48
2023/10/21 06:19:43;;;;;;;7.40;3.35;;;32.50;1.00;;;;;;5058988;28;20025;-49
2023/10/21 06:22:11;;;;;;;8.65;3.22;;;32.50;1.00;;;;;;5071283;28;20032;-48
2023/10/21 06:24:37;;;;;;;6.85;3.95;;;32.50;1.00;;;;;;5071323;28;20104;-45
2023/10/21 06:27:04;;;;;;;8.95;3.85;;;32.50;1.00;;;;;;5071687;28;20539;-46
2023/10/21 06:29:30;;;;;;;9.15;3.42;;;32.60;1.00;;;;;;5071434;28;20028;-46
2023/10/21 06:31:56;;;;;;;8.57;4.10;;;32.50;1.00;;;;;;5071344;28;20115;-46
2023/10/21 06:34:21;;;;;;;5.88;3.55;;;32.50;1.00;;;;;;5071045;28;20036;-46
2023/10/21 06:36:47;;;;;;;11.38;3.90;;;32.50;1.00;;;;;;5071344;28;20020;-48
2023/10/21 06:39:12;;;;;;;8.50;3.75;;;32.50;1.00;;;;;;5071258;28;20047;-48
2023/10/21 06:41:38;;;;;;;10.02;4.10;;;32.50;1.00;;;;;;5071236;28;20034;-46
2023/10/21 06:44:04;;;;;;;8.65;3.45;;;32.50;1.00;;;;;;5071092;28;20031;-45
2023/10/21 06:46:30;;;;;;;6.85;3.58;;;32.60;1.00;;;;;;5071963;28;20033;-45
2023/10/21 06:48:56;;;;;;;7.70;3.53;;;32.60;1.00;;;;;;5056680;28;20073;-47
2023/10/21 06:51:21;;;;;;;6.82;3.72;;;32.60;1.00;;;;;;5074810;28;20127;-47
2023/10/21 06:53:47;;;;;;;9.93;4.15;;;32.60;1.00;;;;;;5074803;28;20020;-46
2023/10/21 06:56:12;;;;;;;7.57;3.85;;;32.60;1.00;;;;;;5074934;28;20043;-48
2023/10/21 06:58:40;;;;;;;12.93;4.30;;;32.60;1.00;;;;;;5074739;28;20467;-47
2023/10/21 07:01:07;;;;;;;11.20;4.97;;;32.60;1.00;;;;;;5074672;28;20043;-47
2023/10/21 07:03:33;;;;;;;11.95;4.57;;;32.50;1.00;;;;;;5074630;28;20034;-46
2023/10/21 07:05:58;;;;;;;8.13;4.50;;;32.40;1.00;;;;;;5074496;28;20027;-48
2023/10/21 07:08:24;;;;;;;13.48;4.18;;;32.10;1.00;;;;;;5074468;28;20029;-46
2023/10/21 07:10:53;;;;;;;9.23;4.60;;;31.90;1.00;;;;;;5074699;28;20021;-47
2023/10/21 07:13:19;;;;;;;8.13;4.65;;;31.70;1.00;;;;;;5056295;28;20078;-45
2023/10/21 07:15:45;;;;;;;13.40;5.68;;;31.70;1.00;;;;;;5074282;28;20029;-45
2023/10/21 07:18:10;;;;;;;12.05;5.93;;;31.90;1.00;;;;;;5071365;28;20033;-45
2023/10/21 07:20:36;;;;;;;8.13;5.65;;;32.00;1.00;;;;;;5071792;28;20639;-49
2023/10/21 07:23:02;;;;;;;9.25;4.82;;;32.00;1.00;;;;;;5074453;28;20086;-47
2023/10/21 07:25:28;;;;;;;7.20;5.05;;;31.90;1.00;;;;;;5074107;28;20035;-47
2023/10/21 07:27:54;;;;;;;11.27;5.90;;;31.90;1.00;;;;;;5074102;28;20013;-47
2023/10/21 07:30:24;;;;;;;8.25;5.60;;;31.80;1.00;;;;;;5074091;28;20039;-50
2023/10/21 07:32:50;;;;;;;10.23;5.20;;;31.80;1.00;;;;;;5070968;28;20113;-49
2023/10/21 07:35:16;;;;;;;11.60;6.35;;;31.80;1.00;;;;;;5063014;28;20040;-46
2023/10/21 07:37:44;;;;;;;10.23;5.45;;;31.80;1.00;;;;;;5073933;28;20029;-47
2023/10/21 07:40:11;;;;;;;8.68;6.05;;;31.90;1.00;;;;;;5073902;28;20162;-48
2023/10/21 07:42:36;;;;;;;10.25;5.50;;;31.90;1.00;;;;;;5073748;28;20021;-47
2023/10/21 07:45:04;;;;;;;10.30;5.68;;;31.80;1.00;;;;;;5063197;28;20535;-50
2023/10/21 07:47:30;;;;;;;12.88;6.18;;;31.80;1.00;;;;;;5070712;28;20077;-46
2023/10/21 07:49:55;;;;;;;10.68;6.95;;;31.80;1.00;;;;;;5073747;28;20020;-48
2023/10/21 07:52:21;;;;;;;14.70;6.95;;;31.80;1.00;;;;;;5073460;28;20025;-45
2023/10/21 07:54:47;;;;;;;9.68;6.60;;;31.90;1.00;;;;;;5073686;28;20035;-47
2023/10/21 07:57:13;;;;;;;11.23;7.88;;;31.90;1.00;;;;;;5073200;28;20056;-46
2023/10/21 07:59:48;;;;;;;12.05;7.50;;;31.80;1.00;;;;;;5073647;28;20098;-47
2023/10/21 08:02:13;;;;;;;13.68;8.45;;;31.90;1.00;;;;;;5064825;28;20382;-45
2023/10/21 08:04:40;;;;;;;17.60;8.57;;;31.90;1.00;;;;;;5073445;28;20031;-49
2023/10/21 08:07:05;;;;;;;15.40;7.15;;;32.20;1.00;;;;;;5059027;28;20023;-50
2023/10/21 08:09:31;;;;;;;11.60;7.57;;;32.40;1.00;;;;;;5068717;28;20048;-50
2023/10/21 08:11:56;;;;;;;15.63;7.60;;;32.40;1.00;;;;;;5069587;28;20378;-53
2023/10/21 08:14:30;;;;;;;11.02;7.45;;;32.40;1.00;;;;;;5072088;28;20025;-49
2023/10/21 08:16:57;;;;;;;14.90;7.40;;;32.40;1.00;;;;;;5057929;28;20466;-51
2023/10/21 08:19:24;;;;;;;15.40;7.97;;;32.60;1.00;;;;;;5064740;28;20294;-50
2023/10/21 08:21:50;;;;;;;14.45;7.40;;;32.60;1.00;;;;;;5070817;28;20048;-51
2023/10/21 08:24:15;;;;;;;14.00;7.85;;;32.60;1.00;;;;;;5055173;28;20020;-53
2023/10/21 08:26:41;;;;;;;10.48;7.95;;;32.60;1.00;;;;;;5072867;28;20024;-52
2023/10/21 08:29:07;;;;;;;10.45;7.18;;;32.70;1.00;;;;;;5072646;28;20498;-54
2023/10/21 08:31:33;;;;;;;10.55;7.28;;;32.70;1.00;;;;;;5054927;28;20032;-49
2023/10/21 08:33:58;;;;;;;11.77;7.75;;;32.70;1.00;;;;;;5054721;28;20059;-54
2023/10/21 08:36:26;;;;;;;16.13;8.77;;;32.70;1.00;;;;;;5071485;28;20063;-51
2023/10/21 08:38:51;;;;;;;14.30;8.23;;;32.80;1.00;;;;;;5054793;28;20354;-53
2023/10/21 08:41:17;;;;;;;12.98;8.15;;;32.90;1.00;;;;;;5072392;28;20107;-51
2023/10/21 08:43:48;;;;;;;12.50;8.15;;;32.90;1.00;;;;;;5062985;28;20021;-53
2023/10/21 08:46:15;;;;;;;13.13;8.57;;;33.00;1.00;;;;;;5070341;28;20123;-49
2023/10/21 08:48:43;;;;;;;10.10;7.47;;;33.00;1.00;;;;;;5070795;28;20035;-52
2023/10/21 08:51:10;;;;;;;14.30;8.35;;;33.00;1.00;;;;;;5071089;28;20036;-48
2023/10/21 08:53:38;;;;;;;16.42;8.35;;;33.00;1.00;;;;;;5072445;28;20074;-49
2023/10/21 08:56:04;;;;;;;13.43;8.00;;;33.00;1.00;;;;;;5072167;28;20028;-53
2023/10/21 08:58:31;;;;;;;10.45;7.55;;;33.00;1.00;;;;;;5072280;28;20017;-51
2023/10/21 09:00:57;;;;;;;15.43;8.07;;;;;;;;;;5072254;28;20066;-50
2023/10/21 09:03:23;;;;;;;10.68;7.18;;;;;;;;;;5070789;28;20430;-53
2023/10/21 09:06:05;;;;;;;12.07;7.78;;;;;;;;;;5072206;28;20039;-50
2023/10/21 09:08:31;;;;;;;16.58;7.05;;;;;;;;;;5071630;28;20044;-50
2023/10/21 09:10:59;;;;;;;12.15;8.27;;;;;;;;;;5071640;28;20028;-52
2023/10/21 09:13:30;;;;;;;12.38;7.82;;;;;;;;;;5071852;28;20059;-49
2023/10/21 09:15:56;;;;;;;11.10;7.93;;;;;;;;;;5071891;28;20598;-51
2023/10/21 09:18:23;;;;;;;12.32;7.90;;;;;;;;;;5071962;28;20078;-54
2023/10/21 09:20:49;;;;;;;14.02;8.40;;;;;;;;;;5071958;28;20081;-49
2023/10/21 09:23:17;;;;;;;11.48;7.90;;;;;;;;;;5071850;28;20108;-53
2023/10/21 09:25:49;;;;;;;13.07;8.13;;;;;;;;;;5070593;28;20047;-50
2023/10/21 09:28:20;;;;;;;14.00;7.40;;;;;;;;;;5072273;28;20024;-49
2023/10/21 09:30:56;;;;;;;12.75;7.53;;;;;;;;;;5071933;28;20021;-53
2023/10/21 09:33:22;;;;;;;12.98;7.80;;;;;;;;;;5071784;28;20485;-50
2023/10/21 09:36:00;;;;;;;13.70;8.00;;;;;;;;;;5070108;28;20417;-49
2023/10/21 09:38:26;;;;;;;12.10;8.35;;;;;;;;;;5071844;28;20548;-51
2023/10/21 09:40:53;;;;;;;12.43;7.95;;;;;;;;;;5071993;28;20119;-50
2023/10/21 09:43:21;;;;;;;11.77;8.10;;;;;;;;;;5072013;28;20405;-49
2023/10/21 09:45:47;;;;;;;13.82;9.07;;;;;;;;;;5071785;28;20028;-50
2023/10/21 09:48:13;;;;;;;14.30;9.07;;;;;;;;;;5071722;28;20139;-49
2023/10/21 09:50:43;;;;;;;14.45;8.30;;;;;;;;;;5071642;28;20036;-48
2023/10/21 09:53:15;;;;;;;11.35;8.02;;;;;;;;;;5069886;28;20017;-49
2023/10/21 09:55:50;;;;;;;12.20;7.68;;;;;;;;;;5071182;28;20450;-53
2023/10/21 09:58:16;;;;;;;13.60;8.27;;;;;;;;;;5071696;28;20028;-51
2023/10/21 10:00:42;;;;;;;19.45;9.23;;;;;;;;;;5069000;28;20025;-54
2023/10/21 10:03:08;;;;;;;12.20;8.82;;;;;;;;;;5052318;28;20031;-51
2023/10/21 10:05:37;;;;;;;12.32;8.93;;;;;;;;;;5059334;28;20068;-53
2023/10/21 10:08:04;;;;;;;11.50;8.88;;;;;;;;;;5069536;28;20047;-52
2023/10/21 10:10:31;;;;;;;9.68;7.50;;;;;;;;;;5071191;28;20020;-53
2023/10/21 10:13:09;;;;;;;13.52;8.55;;;;;;;;;;5053321;28;20516;-54
2023/10/21 10:15:39;;;;;;;14.43;8.27;;;;;;;;;;5071472;28;20115;-52
2023/10/21 10:18:07;;;;;;;12.60;7.57;;;;;;;;;;5066269;28;20048;-51
2023/10/21 10:20:33;;;;;;;11.13;7.07;;;;;;;;;;5052227;28;20037;-53
2023/10/21 10:23:04;;;;;;;14.85;8.65;;;;;;;;;;5055286;28;20013;-49
2023/10/21 10:25:33;;;;;;;15.52;8.27;;;;;;;;;;5055235;28;20049;-52
2023/10/21 10:28:04;;;;;;;10.60;7.28;;;;;;;;;;5050742;28;20018;-53
2023/10/21 10:30:33;;;;;;;10.88;6.70;;;;;;;;;;5046470;28;20024;-52
2023/10/21 10:33:06;;;;;;;14.93;6.70;;;;;;;;;;5054822;28;20082;-52
2023/10/21 10:35:56;;;;;;;9.98;5.80;;;;;;;;;;5040869;28;20025;-54
2023/10/21 10:38:27;;;;;;;8.88;5.35;;;;;;;;;;5039837;28;20542;-53
2023/10/21 10:41:11;;;;;;;10.77;5.90;;;;;;;;;;5054710;28;20070;-50
2023/10/21 10:43:56;;;;;;;10.65;5.82;;;;;;;;;;5043853;28;20031;-48
2023/10/21 10:46:23;;;;;;;6.60;4.82;;;;;;;;;;5051077;28;20112;-51
2023/10/21 10:48:50;;;;;;;6.05;4.57;;;;;;;;;;5054784;28;20449;-49
2023/10/21 10:51:17;;;;;;;9.27;6.07;;;;;;;;;;5055009;28;20356;-50
2023/10/21 10:53:48;;;;;;;8.13;5.43;;;;;;;;;;5054653;28;20554;-53
2023/10/21 10:56:19;;;;;;;10.93;6.05;;;;;;;;;;5054680;28;20457;-53
2023/10/21 10:58:46;;;;;;;8.15;5.63;;;;;;;;;;5054670;28;20104;-50
2023/10/21 11:01:25;;;;;;;11.00;5.90;;;33.10;1.00;;;;;;5054647;28;20456;-52
2023/10/21 11:03:58;;;;;;;11.15;5.93;;;33.80;99.90;;;;;;5042271;28;20053;-51
2023/10/21 11:06:30;;;;;;;11.30;7.40;;;33.80;99.90;;;;;;5054620;28;20031;-53
2023/10/21 11:09:01;;;;;;;10.23;7.50;;;33.80;99.90;;;;;;5054464;28;20017;-50
2023/10/21 11:11:27;;;;;;;11.73;7.18;;;33.80;99.90;;;;;;5069710;28;20364;-53
2023/10/21 11:13:53;;;;;;;12.52;7.90;;;33.80;99.90;;;;;;5054001;28;20032;-49
2023/10/21 11:16:20;;;;;;;12.27;8.50;;;33.80;99.90;;;;;;5054442;28;20043;-50
2023/10/21 11:18:45;;;;;;;8.77;7.90;;;33.80;99.90;;;;;;5065293;28;20075;-50
2023/10/21 11:21:11;;;;;;;12.40;7.68;;;33.80;99.90;;;;;;5074182;28;20020;-51
2023/10/21 11:23:37;;;;;;;10.88;6.72;;;33.80;99.90;;;;;;5067853;28;20070;-51
2023/10/21 11:26:07;;;;;;;10.50;7.07;;;33.80;99.90;;;;;;5074370;28;20465;-53
2023/10/21 11:28:35;;;;;;;12.48;7.53;;;33.80;99.90;;;;;;5073968;28;20053;-53
2023/10/21 11:31:02;;;;;;;13.27;6.82;;;33.80;99.90;;;;;;5042209;28;20052;-51
2023/10/21 11:33:27;;;;;;;11.90;7.63;;;33.80;99.90;;;;;;5073546;28;20371;-49
2023/10/21 11:35:53;;;;;;;11.65;7.60;;;33.90;99.90;;;;;;5073839;28;20035;-49
2023/10/21 11:38:19;;;;;;;8.88;6.82;;;33.80;99.90;;;;;;5074216;28;20365;-50
2023/10/21 11:40:48;;;;;;;9.18;5.75;;;33.80;99.90;;;;;;5073809;28;20024;-50
2023/10/21 11:43:17;;;;;;;9.68;7.05;;;33.90;99.90;;;;;;5073777;28;20021;-49
2023/10/21 11:45:43;;;;;;;13.95;6.72;;;33.90;99.90;;;;;;5073669;28;20024;-49
2023/10/21 11:48:09;;;;;;;18.30;7.95;;;33.90;99.90;;;;;;5071861;28;20032;-49
2023/10/21 11:50:42;;;;;;;12.75;6.93;;;33.90;99.90;;;;;;5073948;28;20094;-49
2023/10/21 11:53:08;;;;;;;12.70;6.25;;;33.80;99.90;;;;;;5059865;28;20027;-48
2023/10/21 12:17:01;;;;;;;8.60;6.63;;;33.90;99.90;;;;;;5072974;28;20115;-50
2023/10/21 12:40:31;;;;;;;13.75;7.60;;;;;;;;;;5072818;28;20063;-49
2023/10/21 12:45:49;;;;;;;11.65;6.57;;;;;;;;;;5070435;28;20036;-54
2023/10/21 12:48:17;;;;;;;10.32;7.00;;;;;;;;;;5071898;28;20095;-52
2023/10/21 12:50:44;;;;;;;13.15;7.45;;;;;;;;;;5071795;28;20099;-51
2023/10/21 12:53:10;;;;;;;12.32;7.53;;;;;;;;;;5066145;28;20086;-53
2023/10/21 12:55:38;;;;;;;10.35;7.38;;;;;;;;;;5053614;28;20060;-52
2023/10/21 12:58:04;;;;;;;9.90;7.43;;;;;;;;;;5054687;28;20382;-52
2023/10/21 13:00:31;;;;;;;11.48;7.35;;;;;;;;;;5056457;28;20547;-50
2023/10/21 13:02:57;;;;;;;13.82;7.55;;;;;;;;;;5072353;28;20100;-50
2023/10/21 13:05:23;;;;;;;12.38;7.57;;;;;;;;;;5058159;28;20136;-53
2023/10/21 13:07:49;;;;;;;13.95;7.88;;;;;;;;;;5072592;28;20111;-50
2023/10/21 13:10:15;;;;;;;10.07;7.38;;;;;;;;;;5072433;28;20020;-53
2023/10/21 13:12:42;;;;;;;11.50;6.68;;;;;;;;;;5072001;28;20028;-51
2023/10/21 13:15:14;;;;;;;11.00;7.25;;;;;;;;;;5072018;28;20434;-48
2023/10/21 13:17:43;;;;;;;8.88;6.50;;;;;;;;;;5070529;28;20029;-50
2023/10/21 13:20:16;;;;;;;13.52;7.28;;;;;;;;;;5072103;28;20020;-53
2023/10/21 13:22:44;;;;;;;10.20;7.35;;;;;;;;;;5071789;28;20504;-51
2023/10/21 13:25:10;;;;;;;12.77;7.85;;;;;;;;;;5072102;28;20027;-50
2023/10/21 13:27:36;;;;;;;13.20;7.35;;;;;;;;;;5071974;28;20023;-52
2023/10/21 13:30:10;;;;;;;11.80;7.82;;;;;;;;;;5071867;28;20025;-52
2023/10/21 13:32:37;;;;;;;13.45;7.90;;;;;;;;;;5072032;28;20019;-50
2023/10/21 13:35:10;;;;;;;11.55;7.53;;;;;;;;;;5071697;28;20029;-53
2023/10/21 13:37:40;;;;;;;11.32;7.45;;;;;;;;;;5072189;28;20033;-48
2023/10/21 13:40:14;;;;;;;9.20;7.45;;;;;;;;;;5071760;28;20095;-52
2023/10/21 13:42:51;;;;;;;11.43;7.72;;;;;;;;;;5072028;28;20024;-51
2023/10/21 13:45:20;;;;;;;9.23;7.72;;;;;;;;;;5071862;28;20029;-50
2023/10/21 13:47:54;;;;;;;13.13;8.02;;;;;;;;;;5065703;28;20120;-50
2023/10/21 13:50:29;;;;;;;11.50;7.53;;;;;;;;;;5071368;28;20032;-52
2023/10/21 13:53:04;;;;;;;11.70;8.40;;;;;;;;;;5071580;28;20493;-49
2023/10/21 13:55:31;;;;;;;11.65;8.23;;;;;;;;;;5072604;28;20055;-49
2023/10/21 13:57:57;;;;;;;10.57;7.78;;;;;;;;;;5075714;28;20496;-48
2023/10/21 14:00:31;;;;;;;9.75;8.05;;;;;;;;;;5061547;28;20058;-50